No: Datum Uhrzeit Land Meereshöhe Ort Wetter Info Temp/°C Luftfeuchte Luftdruck Wind Regen Schnee
8784 >29.05.2017 >06:40:04 310 m Capellen Sonne + 14,2° 94% 1012.9 hPa 0,0 km/h 0,0 mm 0 cm
8783 >29.05.2017 >05:16:18 525 m Ottnang/Hausruck sternenklar + 10,3° 91% 1012.6 hPa 0,8 km/h 0,0 mm 0 cm
8782 >29.05.2017 >04:14:09 48 m Berlin Sonne + 19° 78% 1014.3 hPa 5,0 km/h 0,0 mm 0 cm
8781 >28.05.2017 >12:57:23 566 m Brienz Sonne + 27,7° 37% 1019.5 hPa 3,4 km/h 0,0 mm 0 cm
8780 >28.05.2017 >06:59:49 2 m Cadzand Sonne + 14° 94% 1015.2 hPa 0,0 km/h 0,0 mm 0 cm
8779 >27.05.2017 >07:06:29 25 m Benidorm Sonne + 23,4° 49% 1014.5 hPa 0,0 km/h 0,0 mm 0 cm
8778 >27.05.2017 >06:45:35 566 m Brienz Sonne + 13,7° 78% 1019.9 hPa 2,9 km/h 0,0 mm 0 cm
8777 >26.05.2017 >11:35:30 220 m Perl Sonne + 24° 45% 1017.6 hPa 4,3 km/h 0,0 mm 0 cm
8776 >26.05.2017 >10:16:27 560 m Ottnang/Hausruck bewölkt-Sonne + 18° 64% 1017.5 hPa 4,1 km/h 0,0 mm 0 cm
8775 >26.05.2017 >08:09:02 318 m Stuttgard Sonne + 15,2° 74% 1021.7 hPa 0,0 km/h 0,0 mm 0 cm
8774 >25.05.2017 >20:10:48 310 m Capellen Sonne + 21,9° 52% 1020.3 hPa 6,5 km/h 0,0 mm 0 cm
8773 >25.05.2017 >13:45:51 2 m Cadzand Sonne + 21,1° 30% 1016.9 hPa 2,1 km/h 0,0 mm 0 cm
8772 >24.05.2017 >18:51:17 228 m Uettingen bewölkt + 15,7° 87% 1021.4 hPa 0,0 km/h 0,0 mm 0 cm
8771 >24.05.2017 >13:44:13 310 m Capellen bewölkt-Sonne + 21,8° 54% 1023.6 hPa 4,7 km/h 0,0 mm 0 cm
8770 >23.05.2017 >06:39:44 324 m Windhof bewölkt-Sonne + 10,1° 95% 1016.8 hPa 3,2 km/h 0,0 mm 0 cm
8769 >22.05.2017 >19:17:03 310 m Capellen Sonne + 22,7° 48% 1015.3 hPa 1,4 km/h 0,0 mm 0 cm
8768 >22.05.2017 >16:05:17 560 m Ottnang/Hausruck Sonne + 21,5° 49% 1013.5 hPa 4,5 km/h 0,0 mm 0 cm
8767 >22.05.2017 >14:02:47 566 m Brienz Sonne + 22,3° 46% 1018.9 hPa 2,6 km/h 0,0 mm 0 cm
8766 >21.05.2017 >10:06:06 253 m Kopstal bewölkt-Sonne + 14,6° 74% 1026.9 hPa 3,2 km/h 0,0 mm 0 cm
8765 >21.05.2017 >06:37:26 310 m Capellen Sonne + 3,3° 96% 1027.1 hPa 0,0 km/h 0,0 mm 0 cm
8764 >20.05.2017 >15:28:06 48 m Berlin bewölkt-Sonne + 20,6° 49% 1021.6 hPa 1,0 km/h 0,0 mm 0 cm
8763 >20.05.2017 >06:54:38 2 m Cadzand bewölkt-Sonne + 9,3° 99% 1009.8 hPa 4,0 km/h 0,0 mm 0 cm
8762 >19.05.2017 >12:26:14 566 m Brienz Regen + 10,4° 88% 1013.5 hPa 5,0 km/h 4,3 mm 0 cm
8761 >19.05.2017 >11:13:48 444 m Watrange Regen + 9,8° 95% 1012.1 hPa 1,4 km/h 4,8 mm 0 cm
8760 >18.05.2017 >17:39:05 48 m Berlin bewölkt-Sonne + 27° 41% 1012.4 hPa 1,0 km/h 0,0 mm 0 cm

Admin